sensor_id;sensor_type;location;lat;lon;timestamp;P1;durP1;ratioP1;P2;durP2;ratioP2
65863;SDS011;52639;51.180;20.460;2023-08-17T00:01:32;10.13;;;5.65;;
65863;SDS011;52639;51.180;20.460;2023-08-17T00:05:35;8.95;;;5.90;;
65863;SDS011;52639;51.180;20.460;2023-08-17T00:09:38;9.52;;;5.80;;
65863;SDS011;52639;51.180;20.460;2023-08-17T00:13:41;8.38;;;5.47;;
65863;SDS011;52639;51.180;20.460;2023-08-17T00:17:45;9.52;;;5.45;;
65863;SDS011;52639;51.180;20.460;2023-08-17T00:21:48;7.32;;;5.50;;
65863;SDS011;52639;51.180;20.460;2023-08-17T00:25:51;8.52;;;6.32;;
65863;SDS011;52639;51.180;20.460;2023-08-17T00:29:54;11.30;;;6.15;;
65863;SDS011;52639;51.180;20.460;2023-08-17T00:33:58;8.35;;;5.32;;
65863;SDS011;52639;51.180;20.460;2023-08-17T00:38:01;8.27;;;6.25;;
65863;SDS011;52639;51.180;20.460;2023-08-17T00:42:04;7.30;;;5.80;;
65863;SDS011;52639;51.180;20.460;2023-08-17T00:46:08;14.30;;;6.32;;
65863;SDS011;52639;51.180;20.460;2023-08-17T00:50:14;8.32;;;6.10;;
65863;SDS011;52639;51.180;20.460;2023-08-17T00:54:19;8.85;;;6.22;;
65863;SDS011;52639;51.180;20.460;2023-08-17T00:58:26;8.82;;;6.30;;
65863;SDS011;52639;51.180;20.460;2023-08-17T01:02:29;8.68;;;5.90;;
65863;SDS011;52639;51.180;20.460;2023-08-17T01:06:34;8.32;;;5.35;;
65863;SDS011;52639;51.180;20.460;2023-08-17T01:10:40;6.90;;;4.93;;
65863;SDS011;52639;51.180;20.460;2023-08-17T01:14:50;7.68;;;5.50;;
65863;SDS011;52639;51.180;20.460;2023-08-17T01:18:58;6.63;;;5.20;;
65863;SDS011;52639;51.180;20.460;2023-08-17T01:23:04;7.85;;;5.45;;
65863;SDS011;52639;51.180;20.460;2023-08-17T01:27:07;6.50;;;4.80;;
65863;SDS011;52639;51.180;20.460;2023-08-17T01:31:11;8.50;;;5.43;;
65863;SDS011;52639;51.180;20.460;2023-08-17T01:35:19;7.88;;;5.20;;
65863;SDS011;52639;51.180;20.460;2023-08-17T01:39:37;9.20;;;4.70;;
65863;SDS011;52639;51.180;20.460;2023-08-17T01:43:42;6.72;;;4.90;;
65863;SDS011;52639;51.180;20.460;2023-08-17T01:47:47;7.13;;;4.75;;
65863;SDS011;52639;51.180;20.460;2023-08-17T01:51:51;7.60;;;5.00;;
65863;SDS011;52639;51.180;20.460;2023-08-17T01:55:55;6.75;;;5.00;;
65863;SDS011;52639;51.180;20.460;2023-08-17T01:59:58;7.00;;;4.97;;
65863;SDS011;52639;51.180;20.460;2023-08-17T02:04:03;7.38;;;4.88;;
65863;SDS011;52639;51.180;20.460;2023-08-17T02:08:06;8.30;;;5.10;;
65863;SDS011;52639;51.180;20.460;2023-08-17T02:12:09;8.57;;;5.10;;
65863;SDS011;52639;51.180;20.460;2023-08-17T02:16:12;8.45;;;5.65;;
65863;SDS011;52639;51.180;20.460;2023-08-17T02:20:15;7.15;;;5.00;;
65863;SDS011;52639;51.180;20.460;2023-08-17T02:24:18;57.35;;;36.65;;
65863;SDS011;52639;51.180;20.460;2023-08-17T02:28:22;419.63;;;310.88;;
65863;SDS011;52639;51.180;20.460;2023-08-17T02:32:25;287.45;;;198.45;;
65863;SDS011;52639;51.180;20.460;2023-08-17T02:36:28;170.20;;;119.85;;
65863;SDS011;52639;51.180;20.460;2023-08-17T02:40:31;108.93;;;75.82;;
65863;SDS011;52639;51.180;20.460;2023-08-17T02:44:35;24.00;;;17.40;;
65863;SDS011;52639;51.180;20.460;2023-08-17T02:48:38;11.27;;;8.10;;
65863;SDS011;52639;51.180;20.460;2023-08-17T02:52:42;11.60;;;9.02;;
65863;SDS011;52639;51.180;20.460;2023-08-17T02:56:45;12.02;;;9.63;;
65863;SDS011;52639;51.180;20.460;2023-08-17T03:00:52;9.13;;;6.00;;
65863;SDS011;52639;51.180;20.460;2023-08-17T03:04:54;8.63;;;5.68;;
65863;SDS011;52639;51.180;20.460;2023-08-17T03:08:57;10.55;;;6.43;;
65863;SDS011;52639;51.180;20.460;2023-08-17T03:13:00;19.83;;;13.05;;
65863;SDS011;52639;51.180;20.460;2023-08-17T03:17:05;11.60;;;9.40;;
65863;SDS011;52639;51.180;20.460;2023-08-17T03:21:07;8.55;;;5.60;;
65863;SDS011;52639;51.180;20.460;2023-08-17T03:25:10;7.57;;;5.72;;
65863;SDS011;52639;51.180;20.460;2023-08-17T03:29:13;8.80;;;5.45;;
65863;SDS011;52639;51.180;20.460;2023-08-17T03:33:18;9.98;;;8.40;;
65863;SDS011;52639;51.180;20.460;2023-08-17T03:37:21;12.93;;;7.93;;
65863;SDS011;52639;51.180;20.460;2023-08-17T03:41:24;13.02;;;11.50;;
65863;SDS011;52639;51.180;20.460;2023-08-17T03:45:27;13.85;;;11.45;;
65863;SDS011;52639;51.180;20.460;2023-08-17T03:49:31;8.57;;;6.72;;
65863;SDS011;52639;51.180;20.460;2023-08-17T03:53:34;8.57;;;6.38;;
65863;SDS011;52639;51.180;20.460;2023-08-17T03:57:37;11.85;;;6.10;;
65863;SDS011;52639;51.180;20.460;2023-08-17T04:01:39;10.20;;;6.60;;
65863;SDS011;52639;51.180;20.460;2023-08-17T04:05:44;9.40;;;6.10;;
65863;SDS011;52639;51.180;20.460;2023-08-17T04:09:47;8.50;;;6.72;;
65863;SDS011;52639;51.180;20.460;2023-08-17T04:13:49;10.80;;;7.43;;
65863;SDS011;52639;51.180;20.460;2023-08-17T04:17:52;14.40;;;7.47;;
65863;SDS011;52639;51.180;20.460;2023-08-17T04:21:57;14.65;;;7.07;;
65863;SDS011;52639;51.180;20.460;2023-08-17T04:26:00;12.68;;;8.10;;
65863;SDS011;52639;51.180;20.460;2023-08-17T04:30:03;8.75;;;6.97;;
65863;SDS011;52639;51.180;20.460;2023-08-17T04:34:07;15.40;;;8.05;;
65863;SDS011;52639;51.180;20.460;2023-08-17T04:38:11;15.30;;;8.10;;
65863;SDS011;52639;51.180;20.460;2023-08-17T04:42:14;14.00;;;8.15;;
65863;SDS011;52639;51.180;20.460;2023-08-17T04:46:20;10.68;;;8.80;;
65863;SDS011;52639;51.180;20.460;2023-08-17T04:50:36;11.40;;;8.95;;
65863;SDS011;52639;51.180;20.460;2023-08-17T04:54:42;13.57;;;9.43;;
65863;SDS011;52639;51.180;20.460;2023-08-17T04:58:45;15.13;;;9.43;;
65863;SDS011;52639;51.180;20.460;2023-08-17T05:02:48;12.10;;;9.43;;
65863;SDS011;52639;51.180;20.460;2023-08-17T05:06:51;12.60;;;9.23;;
65863;SDS011;52639;51.180;20.460;2023-08-17T05:10:56;11.70;;;7.70;;
65863;SDS011;52639;51.180;20.460;2023-08-17T05:14:59;14.77;;;9.02;;
65863;SDS011;52639;51.180;20.460;2023-08-17T05:19:02;11.63;;;10.43;;
65863;SDS011;52639;51.180;20.460;2023-08-17T05:23:05;11.18;;;7.70;;
65863;SDS011;52639;51.180;20.460;2023-08-17T05:27:10;9.25;;;6.80;;
65863;SDS011;52639;51.180;20.460;2023-08-17T05:31:13;8.93;;;6.45;;
65863;SDS011;52639;51.180;20.460;2023-08-17T05:35:16;9.73;;;6.20;;
65863;SDS011;52639;51.180;20.460;2023-08-17T05:39:20;8.75;;;6.05;;
65863;SDS011;52639;51.180;20.460;2023-08-17T05:43:25;9.68;;;6.60;;
65863;SDS011;52639;51.180;20.460;2023-08-17T05:47:28;14.05;;;11.10;;
65863;SDS011;52639;51.180;20.460;2023-08-17T05:51:31;9.32;;;6.60;;
65863;SDS011;52639;51.180;20.460;2023-08-17T05:55:34;17.30;;;11.20;;
65863;SDS011;52639;51.180;20.460;2023-08-17T05:59:38;12.55;;;7.65;;
65863;SDS011;52639;51.180;20.460;2023-08-17T06:03:41;9.18;;;8.15;;
65863;SDS011;52639;51.180;20.460;2023-08-17T06:07:44;11.45;;;6.88;;
65863;SDS011;52639;51.180;20.460;2023-08-17T06:11:46;10.02;;;7.35;;
65863;SDS011;52639;51.180;20.460;2023-08-17T06:15:50;10.43;;;6.53;;
65863;SDS011;52639;51.180;20.460;2023-08-17T06:19:53;11.27;;;6.78;;
65863;SDS011;52639;51.180;20.460;2023-08-17T06:23:57;11.27;;;8.35;;
65863;SDS011;52639;51.180;20.460;2023-08-17T06:28:00;13.10;;;7.95;;
65863;SDS011;52639;51.180;20.460;2023-08-17T06:32:05;14.40;;;8.00;;
65863;SDS011;52639;51.180;20.460;2023-08-17T06:36:09;9.30;;;5.90;;
65863;SDS011;52639;51.180;20.460;2023-08-17T06:40:14;10.55;;;6.68;;
65863;SDS011;52639;51.180;20.460;2023-08-17T06:44:17;11.23;;;6.15;;
65863;SDS011;52639;51.180;20.460;2023-08-17T06:48:21;13.57;;;9.13;;
65863;SDS011;52639;51.180;20.460;2023-08-17T06:52:24;7.95;;;4.78;;
65863;SDS011;52639;51.180;20.460;2023-08-17T06:56:27;8.23;;;4.00;;
65863;SDS011;52639;51.180;20.460;2023-08-17T07:00:30;8.65;;;4.35;;
65863;SDS011;52639;51.180;20.460;2023-08-17T07:04:35;6.60;;;4.25;;
65863;SDS011;52639;51.180;20.460;2023-08-17T07:08:43;7.30;;;4.40;;
65863;SDS011;52639;51.180;20.460;2023-08-17T07:12:47;9.30;;;4.68;;
65863;SDS011;52639;51.180;20.460;2023-08-17T07:16:49;9.07;;;4.70;;
65863;SDS011;52639;51.180;20.460;2023-08-17T07:20:54;8.48;;;4.43;;
65863;SDS011;52639;51.180;20.460;2023-08-17T07:24:56;9.27;;;4.75;;
65863;SDS011;52639;51.180;20.460;2023-08-17T07:28:59;8.15;;;4.45;;
65863;SDS011;52639;51.180;20.460;2023-08-17T07:33:02;8.20;;;4.25;;
65863;SDS011;52639;51.180;20.460;2023-08-17T07:37:07;9.55;;;4.50;;
65863;SDS011;52639;51.180;20.460;2023-08-17T07:41:10;9.07;;;4.75;;
65863;SDS011;52639;51.180;20.460;2023-08-17T07:45:13;8.55;;;4.47;;
65863;SDS011;52639;51.180;20.460;2023-08-17T07:49:16;5.25;;;3.70;;
65863;SDS011;52639;51.180;20.460;2023-08-17T07:53:21;5.25;;;3.92;;
65863;SDS011;52639;51.180;20.460;2023-08-17T07:57:24;10.90;;;6.55;;
65863;SDS011;52639;51.180;20.460;2023-08-17T08:01:27;6.38;;;4.03;;
65863;SDS011;52639;51.180;20.460;2023-08-17T08:05:29;7.20;;;3.38;;
65863;SDS011;52639;51.180;20.460;2023-08-17T08:09:34;7.53;;;3.58;;
65863;SDS011;52639;51.180;20.460;2023-08-17T08:13:37;9.73;;;4.13;;
65863;SDS011;52639;51.180;20.460;2023-08-17T08:17:40;8.65;;;4.05;;
65863;SDS011;52639;51.180;20.460;2023-08-17T08:21:43;5.88;;;4.10;;
65863;SDS011;52639;51.180;20.460;2023-08-17T08:25:49;9.85;;;4.68;;
65863;SDS011;52639;51.180;20.460;2023-08-17T08:29:52;8.88;;;4.50;;
65863;SDS011;52639;51.180;20.460;2023-08-17T08:33:55;6.35;;;4.32;;
65863;SDS011;52639;51.180;20.460;2023-08-17T08:37:58;5.75;;;4.63;;
65863;SDS011;52639;51.180;20.460;2023-08-17T08:42:02;7.90;;;4.80;;
65863;SDS011;52639;51.180;20.460;2023-08-17T08:46:06;7.35;;;4.95;;
65863;SDS011;52639;51.180;20.460;2023-08-17T08:50:09;8.30;;;4.97;;
65863;SDS011;52639;51.180;20.460;2023-08-17T08:54:21;7.68;;;5.32;;
65863;SDS011;52639;51.180;20.460;2023-08-17T08:58:26;7.20;;;5.25;;
65863;SDS011;52639;51.180;20.460;2023-08-17T09:02:31;8.40;;;5.00;;
65863;SDS011;52639;51.180;20.460;2023-08-17T09:06:36;7.93;;;4.65;;
65863;SDS011;52639;51.180;20.460;2023-08-17T09:10:41;8.80;;;5.00;;
65863;SDS011;52639;51.180;20.460;2023-08-17T09:14:45;7.38;;;4.47;;
65863;SDS011;52639;51.180;20.460;2023-08-17T09:18:49;8.68;;;4.60;;
65863;SDS011;52639;51.180;20.460;2023-08-17T09:22:54;6.43;;;4.38;;
65863;SDS011;52639;51.180;20.460;2023-08-17T09:26:58;5.80;;;4.30;;
65863;SDS011;52639;51.180;20.460;2023-08-17T09:31:03;5.90;;;4.40;;
65863;SDS011;52639;51.180;20.460;2023-08-17T09:35:06;7.97;;;4.35;;
65863;SDS011;52639;51.180;20.460;2023-08-17T09:39:10;6.55;;;4.00;;
65863;SDS011;52639;51.180;20.460;2023-08-17T09:43:13;6.43;;;3.90;;
65863;SDS011;52639;51.180;20.460;2023-08-17T09:47:18;6.32;;;4.20;;
65863;SDS011;52639;51.180;20.460;2023-08-17T09:51:22;5.65;;;4.20;;
65863;SDS011;52639;51.180;20.460;2023-08-17T09:55:26;6.20;;;3.97;;
65863;SDS011;52639;51.180;20.460;2023-08-17T09:59:29;8.85;;;4.22;;
65863;SDS011;52639;51.180;20.460;2023-08-17T10:03:34;6.85;;;4.20;;
65863;SDS011;52639;51.180;20.460;2023-08-17T10:07:41;8.00;;;3.55;;
65863;SDS011;52639;51.180;20.460;2023-08-17T10:11:48;5.28;;;3.67;;
65863;SDS011;52639;51.180;20.460;2023-08-17T10:15:59;4.95;;;3.20;;
65863;SDS011;52639;51.180;20.460;2023-08-17T10:20:07;5.57;;;3.60;;
65863;SDS011;52639;51.180;20.460;2023-08-17T10:24:11;7.32;;;4.25;;
65863;SDS011;52639;51.180;20.460;2023-08-17T10:28:14;7.82;;;4.00;;
65863;SDS011;52639;51.180;20.460;2023-08-17T10:32:20;4.82;;;3.50;;
65863;SDS011;52639;51.180;20.460;2023-08-17T10:36:26;5.35;;;3.20;;
65863;SDS011;52639;51.180;20.460;2023-08-17T10:40:34;6.25;;;3.45;;
65863;SDS011;52639;51.180;20.460;2023-08-17T10:44:39;6.80;;;3.72;;
65863;SDS011;52639;51.180;20.460;2023-08-17T10:48:43;6.85;;;3.45;;
65863;SDS011;52639;51.180;20.460;2023-08-17T10:52:49;5.55;;;3.65;;
65863;SDS011;52639;51.180;20.460;2023-08-17T10:56:52;6.05;;;4.00;;
65863;SDS011;52639;51.180;20.460;2023-08-17T11:00:55;5.32;;;3.58;;
65863;SDS011;52639;51.180;20.460;2023-08-17T11:04:58;7.15;;;3.50;;
65863;SDS011;52639;51.180;20.460;2023-08-17T11:09:05;7.40;;;4.10;;
65863;SDS011;52639;51.180;20.460;2023-08-17T11:13:11;8.48;;;3.33;;
65863;SDS011;52639;51.180;20.460;2023-08-17T11:17:20;8.05;;;3.55;;
65863;SDS011;52639;51.180;20.460;2023-08-17T11:21:25;4.38;;;2.63;;
65863;SDS011;52639;51.180;20.460;2023-08-17T11:25:30;7.43;;;3.65;;
65863;SDS011;52639;51.180;20.460;2023-08-17T11:29:34;6.40;;;3.25;;
65863;SDS011;52639;51.180;20.460;2023-08-17T11:33:38;6.82;;;3.38;;
65863;SDS011;52639;51.180;20.460;2023-08-17T11:37:42;6.10;;;3.55;;
65863;SDS011;52639;51.180;20.460;2023-08-17T11:41:46;6.18;;;3.55;;
65863;SDS011;52639;51.180;20.460;2023-08-17T11:45:52;5.97;;;3.20;;
65863;SDS011;52639;51.180;20.460;2023-08-17T11:49:58;5.57;;;3.30;;
65863;SDS011;52639;51.180;20.460;2023-08-17T11:54:02;4.65;;;2.95;;
65863;SDS011;52639;51.180;20.460;2023-08-17T11:58:09;6.07;;;3.00;;
65863;SDS011;52639;51.180;20.460;2023-08-17T12:02:12;5.63;;;3.53;;
65863;SDS011;52639;51.180;20.460;2023-08-17T12:06:15;5.32;;;3.10;;
65863;SDS011;52639;51.180;20.460;2023-08-17T12:10:19;9.25;;;2.67;;
65863;SDS011;52639;51.180;20.460;2023-08-17T12:14:25;4.90;;;3.00;;
65863;SDS011;52639;51.180;20.460;2023-08-17T12:18:31;4.05;;;2.67;;
65863;SDS011;52639;51.180;20.460;2023-08-17T12:22:35;4.97;;;2.78;;
65863;SDS011;52639;51.180;20.460;2023-08-17T12:26:41;6.80;;;2.88;;
65863;SDS011;52639;51.180;20.460;2023-08-17T12:30:46;4.53;;;2.90;;
65863;SDS011;52639;51.180;20.460;2023-08-17T12:34:49;8.90;;;3.00;;
65863;SDS011;52639;51.180;20.460;2023-08-17T12:38:52;8.05;;;3.28;;
65863;SDS011;52639;51.180;20.460;2023-08-17T12:42:55;5.07;;;3.30;;
65863;SDS011;52639;51.180;20.460;2023-08-17T12:46:59;4.57;;;2.97;;
65863;SDS011;52639;51.180;20.460;2023-08-17T12:51:02;4.20;;;3.22;;
65863;SDS011;52639;51.180;20.460;2023-08-17T12:55:05;3.92;;;3.00;;
65863;SDS011;52639;51.180;20.460;2023-08-17T12:59:08;5.43;;;2.95;;
65863;SDS011;52639;51.180;20.460;2023-08-17T13:03:12;8.10;;;3.13;;
65863;SDS011;52639;51.180;20.460;2023-08-17T13:07:15;6.95;;;2.95;;
65863;SDS011;52639;51.180;20.460;2023-08-17T13:11:19;5.28;;;3.30;;
65863;SDS011;52639;51.180;20.460;2023-08-17T13:15:22;6.57;;;3.10;;
65863;SDS011;52639;51.180;20.460;2023-08-17T13:19:27;5.50;;;3.45;;
65863;SDS011;52639;51.180;20.460;2023-08-17T13:23:30;5.03;;;3.10;;
65863;SDS011;52639;51.180;20.460;2023-08-17T13:27:33;5.95;;;3.03;;
65863;SDS011;52639;51.180;20.460;2023-08-17T13:31:36;5.13;;;3.13;;
65863;SDS011;52639;51.180;20.460;2023-08-17T13:35:44;5.30;;;3.40;;
65863;SDS011;52639;51.180;20.460;2023-08-17T13:39:47;6.40;;;3.40;;
65863;SDS011;52639;51.180;20.460;2023-08-17T13:43:50;6.07;;;3.60;;
65863;SDS011;52639;51.180;20.460;2023-08-17T13:47:53;6.93;;;3.50;;
65863;SDS011;52639;51.180;20.460;2023-08-17T13:51:58;7.13;;;3.45;;
65863;SDS011;52639;51.180;20.460;2023-08-17T13:56:04;7.40;;;3.97;;
65863;SDS011;52639;51.180;20.460;2023-08-17T14:00:08;6.25;;;3.30;;
65863;SDS011;52639;51.180;20.460;2023-08-17T14:04:12;9.45;;;3.50;;
65863;SDS011;52639;51.180;20.460;2023-08-17T14:08:16;7.20;;;3.70;;
65863;SDS011;52639;51.180;20.460;2023-08-17T14:12:19;5.55;;;3.70;;
65863;SDS011;52639;51.180;20.460;2023-08-17T14:16:22;6.55;;;3.95;;
65863;SDS011;52639;51.180;20.460;2023-08-17T14:20:25;6.82;;;3.53;;
65863;SDS011;52639;51.180;20.460;2023-08-17T14:24:33;6.00;;;3.58;;
65863;SDS011;52639;51.180;20.460;2023-08-17T14:28:36;6.57;;;3.53;;
65863;SDS011;52639;51.180;20.460;2023-08-17T14:32:39;6.65;;;3.58;;
65863;SDS011;52639;51.180;20.460;2023-08-17T14:36:42;6.72;;;3.40;;
65863;SDS011;52639;51.180;20.460;2023-08-17T14:40:47;6.43;;;3.47;;
65863;SDS011;52639;51.180;20.460;2023-08-17T14:44:51;6.50;;;3.25;;
65863;SDS011;52639;51.180;20.460;2023-08-17T14:48:53;7.75;;;3.47;;
65863;SDS011;52639;51.180;20.460;2023-08-17T14:52:57;10.10;;;3.47;;
65863;SDS011;52639;51.180;20.460;2023-08-17T14:57:01;6.03;;;3.45;;
65863;SDS011;52639;51.180;20.460;2023-08-17T15:01:04;5.43;;;3.75;;
65863;SDS011;52639;51.180;20.460;2023-08-17T15:05:07;7.97;;;4.38;;
65863;SDS011;52639;51.180;20.460;2023-08-17T15:09:10;6.07;;;3.65;;
65863;SDS011;52639;51.180;20.460;2023-08-17T15:13:15;6.20;;;4.75;;
65863;SDS011;52639;51.180;20.460;2023-08-17T15:17:18;4.65;;;3.83;;
65863;SDS011;52639;51.180;20.460;2023-08-17T15:21:21;7.80;;;4.13;;
65863;SDS011;52639;51.180;20.460;2023-08-17T15:25:24;7.32;;;4.20;;
65863;SDS011;52639;51.180;20.460;2023-08-17T15:29:29;7.85;;;3.90;;
65863;SDS011;52639;51.180;20.460;2023-08-17T15:33:33;7.80;;;4.40;;
65863;SDS011;52639;51.180;20.460;2023-08-17T15:37:36;8.85;;;4.57;;
65863;SDS011;52639;51.180;20.460;2023-08-17T15:41:39;8.55;;;5.25;;
65863;SDS011;52639;51.180;20.460;2023-08-17T15:45:44;11.50;;;5.65;;
65863;SDS011;52639;51.180;20.460;2023-08-17T15:49:47;14.00;;;6.32;;
65863;SDS011;52639;51.180;20.460;2023-08-17T15:53:50;14.10;;;5.70;;
65863;SDS011;52639;51.180;20.460;2023-08-17T15:57:53;11.07;;;6.18;;
65863;SDS011;52639;51.180;20.460;2023-08-17T16:01:58;11.73;;;6.85;;
65863;SDS011;52639;51.180;20.460;2023-08-17T16:06:01;9.45;;;7.28;;
65863;SDS011;52639;51.180;20.460;2023-08-17T16:10:04;12.70;;;7.70;;
65863;SDS011;52639;51.180;20.460;2023-08-17T16:14:08;11.27;;;8.02;;
65863;SDS011;52639;51.180;20.460;2023-08-17T16:18:12;13.45;;;8.23;;
65863;SDS011;52639;51.180;20.460;2023-08-17T16:22:15;11.18;;;8.70;;
65863;SDS011;52639;51.180;20.460;2023-08-17T16:26:18;10.10;;;7.72;;
65863;SDS011;52639;51.180;20.460;2023-08-17T16:30:21;14.85;;;8.85;;
65863;SDS011;52639;51.180;20.460;2023-08-17T16:34:26;16.13;;;9.70;;
65863;SDS011;52639;51.180;20.460;2023-08-17T16:38:29;15.48;;;8.95;;
65863;SDS011;52639;51.180;20.460;2023-08-17T16:42:32;16.70;;;10.35;;
65863;SDS011;52639;51.180;20.460;2023-08-17T16:46:36;17.67;;;10.40;;
65863;SDS011;52639;51.180;20.460;2023-08-17T16:50:41;13.82;;;10.02;;
65863;SDS011;52639;51.180;20.460;2023-08-17T16:54:44;19.25;;;10.98;;
65863;SDS011;52639;51.180;20.460;2023-08-17T16:58:48;14.75;;;10.35;;
65863;SDS011;52639;51.180;20.460;2023-08-17T17:02:51;15.27;;;9.57;;
65863;SDS011;52639;51.180;20.460;2023-08-17T17:06:58;15.77;;;10.63;;
65863;SDS011;52639;51.180;20.460;2023-08-17T17:11:02;16.48;;;10.82;;
65863;SDS011;52639;51.180;20.460;2023-08-17T17:15:06;16.85;;;11.30;;
65863;SDS011;52639;51.180;20.460;2023-08-17T17:19:10;15.00;;;12.20;;
65863;SDS011;52639;51.180;20.460;2023-08-17T17:23:16;14.75;;;12.18;;
65863;SDS011;52639;51.180;20.460;2023-08-17T17:27:20;22.83;;;14.27;;
65863;SDS011;52639;51.180;20.460;2023-08-17T17:31:23;16.30;;;12.82;;
65863;SDS011;52639;51.180;20.460;2023-08-17T17:35:28;19.02;;;13.27;;
65863;SDS011;52639;51.180;20.460;2023-08-17T17:39:34;19.85;;;15.02;;
65863;SDS011;52639;51.180;20.460;2023-08-17T17:43:38;19.95;;;14.30;;
65863;SDS011;52639;51.180;20.460;2023-08-17T17:47:43;19.75;;;14.32;;
65863;SDS011;52639;51.180;20.460;2023-08-17T17:51:48;23.77;;;17.92;;
65863;SDS011;52639;51.180;20.460;2023-08-17T17:55:54;20.13;;;14.63;;
65863;SDS011;52639;51.180;20.460;2023-08-17T18:00:03;17.98;;;14.55;;
65863;SDS011;52639;51.180;20.460;2023-08-17T18:04:08;19.17;;;15.15;;
65863;SDS011;52639;51.180;20.460;2023-08-17T18:08:13;21.95;;;16.45;;
65863;SDS011;52639;51.180;20.460;2023-08-17T18:12:22;22.05;;;16.48;;
65863;SDS011;52639;51.180;20.460;2023-08-17T18:16:32;23.15;;;16.50;;
65863;SDS011;52639;51.180;20.460;2023-08-17T18:20:36;26.17;;;17.58;;
65863;SDS011;52639;51.180;20.460;2023-08-17T18:24:43;22.52;;;16.25;;
65863;SDS011;52639;51.180;20.460;2023-08-17T18:29:03;21.63;;;16.35;;
65863;SDS011;52639;51.180;20.460;2023-08-17T18:33:10;28.63;;;17.58;;
65863;SDS011;52639;51.180;20.460;2023-08-17T18:37:16;20.95;;;15.50;;
65863;SDS011;52639;51.180;20.460;2023-08-17T18:41:21;22.45;;;15.95;;
65863;SDS011;52639;51.180;20.460;2023-08-17T18:45:28;24.25;;;16.27;;
65863;SDS011;52639;51.180;20.460;2023-08-17T18:49:32;20.40;;;15.10;;
65863;SDS011;52639;51.180;20.460;2023-08-17T18:53:37;24.27;;;18.00;;
65863;SDS011;52639;51.180;20.460;2023-08-17T18:57:41;31.27;;;19.55;;
65863;SDS011;52639;51.180;20.460;2023-08-17T19:01:48;28.85;;;20.25;;
65863;SDS011;52639;51.180;20.460;2023-08-17T19:05:53;29.65;;;20.60;;
65863;SDS011;52639;51.180;20.460;2023-08-17T19:09:58;30.23;;;21.05;;
65863;SDS011;52639;51.180;20.460;2023-08-17T19:14:01;25.20;;;19.45;;
65863;SDS011;52639;51.180;20.460;2023-08-17T19:18:10;31.63;;;20.88;;
65863;SDS011;52639;51.180;20.460;2023-08-17T19:22:16;32.75;;;20.83;;
65863;SDS011;52639;51.180;20.460;2023-08-17T19:26:20;31.45;;;22.60;;
65863;SDS011;52639;51.180;20.460;2023-08-17T19:30:26;32.22;;;21.63;;
65863;SDS011;52639;51.180;20.460;2023-08-17T19:34:33;32.75;;;21.52;;
65863;SDS011;52639;51.180;20.460;2023-08-17T19:38:37;35.30;;;22.98;;
65863;SDS011;52639;51.180;20.460;2023-08-17T19:42:42;37.63;;;22.77;;
65863;SDS011;52639;51.180;20.460;2023-08-17T19:46:47;37.47;;;23.45;;
65863;SDS011;52639;51.180;20.460;2023-08-17T19:50:59;25.88;;;19.45;;
65863;SDS011;52639;51.180;20.460;2023-08-17T19:55:07;29.52;;;19.48;;
65863;SDS011;52639;51.180;20.460;2023-08-17T19:59:13;24.00;;;17.25;;
65863;SDS011;52639;51.180;20.460;2023-08-17T20:03:17;21.15;;;15.88;;
65863;SDS011;52639;51.180;20.460;2023-08-17T20:07:24;21.98;;;17.50;;
65863;SDS011;52639;51.180;20.460;2023-08-17T20:11:29;21.30;;;16.42;;
65863;SDS011;52639;51.180;20.460;2023-08-17T20:15:33;20.08;;;15.93;;
65863;SDS011;52639;51.180;20.460;2023-08-17T20:19:38;22.55;;;17.02;;
65863;SDS011;52639;51.180;20.460;2023-08-17T20:23:45;20.55;;;16.85;;
65863;SDS011;52639;51.180;20.460;2023-08-17T20:27:50;21.90;;;16.83;;
65863;SDS011;52639;51.180;20.460;2023-08-17T20:31:56;23.25;;;17.15;;
65863;SDS011;52639;51.180;20.460;2023-08-17T20:36:00;25.05;;;18.30;;
65863;SDS011;52639;51.180;20.460;2023-08-17T20:40:05;23.58;;;18.30;;
65863;SDS011;52639;51.180;20.460;2023-08-17T20:44:10;24.40;;;17.42;;
65863;SDS011;52639;51.180;20.460;2023-08-17T20:48:15;22.58;;;17.77;;
65863;SDS011;52639;51.180;20.460;2023-08-17T20:52:19;25.63;;;18.48;;
65863;SDS011;52639;51.180;20.460;2023-08-17T20:56:26;25.63;;;19.15;;
65863;SDS011;52639;51.180;20.460;2023-08-17T21:00:30;30.95;;;19.77;;
65863;SDS011;52639;51.180;20.460;2023-08-17T21:04:34;28.75;;;19.90;;
65863;SDS011;52639;51.180;20.460;2023-08-17T21:08:36;29.67;;;19.20;;
65863;SDS011;52639;51.180;20.460;2023-08-17T21:12:45;29.40;;;21.02;;
65863;SDS011;52639;51.180;20.460;2023-08-17T21:16:48;30.65;;;20.58;;
65863;SDS011;52639;51.180;20.460;2023-08-17T21:20:52;29.08;;;20.83;;
65863;SDS011;52639;51.180;20.460;2023-08-17T21:24:57;26.52;;;20.65;;
65863;SDS011;52639;51.180;20.460;2023-08-17T21:29:02;26.92;;;19.38;;
65863;SDS011;52639;51.180;20.460;2023-08-17T21:33:05;23.92;;;19.25;;
65863;SDS011;52639;51.180;20.460;2023-08-17T21:37:09;22.92;;;18.25;;
65863;SDS011;52639;51.180;20.460;2023-08-17T21:41:12;23.33;;;18.70;;
65863;SDS011;52639;51.180;20.460;2023-08-17T21:45:16;27.92;;;20.30;;
65863;SDS011;52639;51.180;20.460;2023-08-17T21:49:20;25.02;;;19.83;;
65863;SDS011;52639;51.180;20.460;2023-08-17T21:53:22;25.92;;;18.75;;
65863;SDS011;52639;51.180;20.460;2023-08-17T21:57:25;25.92;;;19.48;;
65863;SDS011;52639;51.180;20.460;2023-08-17T22:01:31;25.73;;;19.85;;
65863;SDS011;52639;51.180;20.460;2023-08-17T22:05:42;28.25;;;18.63;;
65863;SDS011;52639;51.180;20.460;2023-08-17T22:09:46;25.63;;;19.15;;
65863;SDS011;52639;51.180;20.460;2023-08-17T22:13:50;21.95;;;17.58;;
65863;SDS011;52639;51.180;20.460;2023-08-17T22:17:54;29.75;;;20.15;;
65863;SDS011;52639;51.180;20.460;2023-08-17T22:21:58;25.40;;;19.55;;
65863;SDS011;52639;51.180;20.460;2023-08-17T22:26:01;25.88;;;17.85;;
65863;SDS011;52639;51.180;20.460;2023-08-17T22:30:04;22.35;;;15.93;;
65863;SDS011;52639;51.180;20.460;2023-08-17T22:34:09;15.45;;;13.63;;
65863;SDS011;52639;51.180;20.460;2023-08-17T22:38:13;17.70;;;12.40;;
65863;SDS011;52639;51.180;20.460;2023-08-17T22:42:15;16.15;;;12.48;;
65863;SDS011;52639;51.180;20.460;2023-08-17T22:46:18;16.48;;;12.13;;
65863;SDS011;52639;51.180;20.460;2023-08-17T22:50:23;18.42;;;12.48;;
65863;SDS011;52639;51.180;20.460;2023-08-17T22:54:26;14.40;;;11.60;;
65863;SDS011;52639;51.180;20.460;2023-08-17T22:58:29;18.50;;;13.07;;
65863;SDS011;52639;51.180;20.460;2023-08-17T23:02:32;18.60;;;13.43;;
65863;SDS011;52639;51.180;20.460;2023-08-17T23:06:37;17.80;;;13.95;;
65863;SDS011;52639;51.180;20.460;2023-08-17T23:10:40;19.75;;;13.90;;
65863;SDS011;52639;51.180;20.460;2023-08-17T23:14:43;20.23;;;14.88;;
65863;SDS011;52639;51.180;20.460;2023-08-17T23:18:46;18.13;;;14.13;;
65863;SDS011;52639;51.180;20.460;2023-08-17T23:22:50;25.42;;;16.13;;
65863;SDS011;52639;51.180;20.460;2023-08-17T23:26:53;21.80;;;13.90;;
65863;SDS011;52639;51.180;20.460;2023-08-17T23:30:57;20.20;;;15.82;;
65863;SDS011;52639;51.180;20.460;2023-08-17T23:35:01;25.05;;;15.98;;
65863;SDS011;52639;51.180;20.460;2023-08-17T23:39:06;21.48;;;14.40;;
65863;SDS011;52639;51.180;20.460;2023-08-17T23:43:09;20.45;;;13.77;;
65863;SDS011;52639;51.180;20.460;2023-08-17T23:47:12;18.77;;;13.88;;
65863;SDS011;52639;51.180;20.460;2023-08-17T23:51:15;21.45;;;15.88;;